Time;durP1;ratioP1;P1;durP2;ratioP2;P2;SDS_P1;SDS_P2;PMS_P1;PMS_P2;Temp;Humidity;BMP_temperature;BMP_pressure;BME280_temperature;BME280_humidity;BME280_pressure;Samples;Min_cycle;Max_cycle;Signal;HPM_P1;HPM_P2
2023/08/12 00:02:13;;;;;;;6.55;4.60;;;16.90;99.90;;;;;;5026753;28;20115;-78
2023/08/12 00:04:39;;;;;;;10.25;4.88;;;16.90;99.90;;;;;;5027528;28;20033;-78
2023/08/12 00:07:04;;;;;;;7.78;4.55;;;16.80;99.90;;;;;;5028472;28;20033;-78
2023/08/12 00:09:30;;;;;;;7.15;4.30;;;16.80;99.90;;;;;;5029013;28;20088;-78
2023/08/12 00:11:56;;;;;;;6.82;4.35;;;16.90;99.90;;;;;;5028931;28;20029;-78
2023/08/12 00:14:21;;;;;;;7.20;4.30;;;16.80;99.90;;;;;;5029528;28;20661;-77
2023/08/12 00:16:47;;;;;;;6.93;4.20;;;16.80;99.90;;;;;;5028092;28;20124;-78
2023/08/12 00:19:13;;;;;;;6.65;3.90;;;16.80;99.90;;;;;;5029226;28;20124;-77
2023/08/12 00:21:38;;;;;;;9.65;4.93;;;16.70;99.90;;;;;;5027695;28;20169;-78
2023/08/12 00:24:04;;;;;;;6.68;4.50;;;16.70;99.90;;;;;;5027940;28;20700;-78
2023/08/12 00:26:30;;;;;;;9.27;5.35;;;16.70;99.90;;;;;;5029266;28;20022;-78
2023/08/12 00:28:56;;;;;;;7.63;5.72;;;16.70;99.90;;;;;;5029438;28;20127;-78
2023/08/12 00:31:21;;;;;;;9.10;4.68;;;16.70;99.90;;;;;;5028160;28;20390;-78
2023/08/12 00:33:47;;;;;;;7.68;4.90;;;16.60;99.90;;;;;;5027460;28;20025;-77
2023/08/12 00:36:12;;;;;;;6.32;4.68;;;16.60;99.90;;;;;;5028205;28;20036;-78
2023/08/12 00:38:38;;;;;;;8.35;5.05;;;16.60;99.90;;;;;;5027967;28;20104;-77
2023/08/12 00:41:03;;;;;;;6.28;5.00;;;16.60;99.90;;;;;;5028536;28;20812;-78
2023/08/12 00:43:29;;;;;;;8.13;5.20;;;16.60;99.90;;;;;;5028627;28;20522;-77
2023/08/12 00:45:54;;;;;;;10.90;5.55;;;16.60;99.90;;;;;;5028663;28;20076;-77
2023/08/12 00:48:20;;;;;;;7.45;5.13;;;16.60;99.90;;;;;;5026935;28;20407;-78
2023/08/12 00:50:46;;;;;;;9.55;5.25;;;16.50;99.90;;;;;;5028751;28;20048;-78
2023/08/12 00:53:14;;;;;;;8.32;5.05;;;16.50;99.90;;;;;;5028176;28;20033;-77
2023/08/12 00:55:40;;;;;;;6.15;4.70;;;16.50;99.90;;;;;;5028640;28;20091;-78
2023/08/12 00:58:06;;;;;;;5.75;4.18;;;16.40;99.90;;;;;;5026902;28;20068;-78
2023/08/12 01:00:32;;;;;;;7.30;4.60;;;16.40;99.90;;;;;;5027943;28;20121;-78
2023/08/12 01:02:59;;;;;;;6.20;4.20;;;16.30;99.90;;;;;;5029316;28;20105;-78
2023/08/12 01:05:25;;;;;;;5.50;3.80;;;16.30;99.90;;;;;;5028941;28;20040;-78
2023/08/12 01:07:50;;;;;;;6.78;4.25;;;16.30;99.90;;;;;;5028585;28;20093;-78
2023/08/12 01:10:16;;;;;;;5.72;4.22;;;16.20;99.90;;;;;;5028709;28;20029;-78
2023/08/12 01:12:53;;;;;;;7.63;4.07;;;16.20;99.90;;;;;;5028700;28;20029;-78
2023/08/12 01:15:21;;;;;;;5.80;4.03;;;16.20;99.90;;;;;;5032496;28;20036;-78
2023/08/12 01:17:51;;;;;;;6.25;4.10;;;16.10;99.90;;;;;;5029407;28;20396;-78
2023/08/12 01:20:24;;;;;;;7.97;4.28;;;16.10;99.90;;;;;;5032311;28;20483;-78
2023/08/12 01:22:56;;;;;;;5.78;4.30;;;16.10;99.90;;;;;;5032467;28;20128;-78
2023/08/12 01:25:22;;;;;;;13.30;4.50;;;16.00;99.90;;;;;;5032241;28;20017;-77
2023/08/12 01:27:47;;;;;;;6.25;4.38;;;16.00;99.90;;;;;;5032424;28;20044;-78
2023/08/12 01:30:14;;;;;;;6.18;3.92;;;16.00;99.90;;;;;;5033399;28;20036;-77
2023/08/12 01:32:49;;;;;;;8.30;4.55;;;16.00;99.90;;;;;;5033070;28;20117;-78
2023/08/12 01:35:20;;;;;;;7.03;4.40;;;15.90;99.90;;;;;;5035073;28;20025;-77
2023/08/12 01:37:49;;;;;;;7.35;4.60;;;15.90;99.90;;;;;;5034153;28;20108;-77
2023/08/12 01:40:16;;;;;;;6.72;4.43;;;15.90;99.90;;;;;;5035268;28;20029;-78
2023/08/12 01:42:42;;;;;;;7.78;4.55;;;15.90;99.90;;;;;;5034192;28;20033;-78
2023/08/12 01:45:08;;;;;;;8.32;4.65;;;15.90;99.90;;;;;;5031748;28;20498;-78
2023/08/12 01:47:34;;;;;;;7.18;4.03;;;15.80;99.90;;;;;;5031879;28;20029;-77
2023/08/12 01:49:59;;;;;;;6.18;4.03;;;15.80;99.90;;;;;;5031682;28;20056;-77
2023/08/12 01:52:25;;;;;;;6.63;4.75;;;15.80;99.90;;;;;;5031628;28;20064;-78
2023/08/12 01:54:51;;;;;;;9.13;4.32;;;15.80;99.90;;;;;;5031463;28;20036;-77
2023/08/12 01:57:17;;;;;;;6.60;4.25;;;15.80;99.90;;;;;;5032028;28;20040;-78
2023/08/12 01:59:45;;;;;;;7.05;4.55;;;15.70;99.90;;;;;;5032275;28;20033;-78
2023/08/12 02:02:11;;;;;;;5.60;4.47;;;15.70;99.90;;;;;;5031932;28;20025;-77
2023/08/12 02:04:39;;;;;;;5.85;4.68;;;15.70;99.90;;;;;;5031824;28;20160;-77
2023/08/12 02:07:04;;;;;;;6.35;4.35;;;15.70;99.90;;;;;;5031607;28;20235;-77
2023/08/12 02:09:30;;;;;;;5.95;4.57;;;15.70;99.90;;;;;;5032014;28;20033;-78
2023/08/12 02:11:56;;;;;;;7.88;4.82;;;15.70;99.90;;;;;;5032163;28;20036;-78
2023/08/12 02:14:22;;;;;;;6.40;4.72;;;15.70;99.90;;;;;;5032015;28;20052;-78
2023/08/12 02:16:48;;;;;;;6.75;4.70;;;15.60;99.90;;;;;;5031714;28;20536;-78
2023/08/12 02:19:13;;;;;;;7.75;4.55;;;15.60;99.90;;;;;;5031785;28;20111;-78
2023/08/12 02:21:39;;;;;;;7.70;4.45;;;15.60;99.90;;;;;;5032361;28;20063;-77
2023/08/12 02:24:05;;;;;;;5.43;4.25;;;15.60;99.90;;;;;;5032414;28;20064;-78
2023/08/12 02:26:30;;;;;;;9.02;4.30;;;15.50;99.90;;;;;;5029402;28;20033;-78
2023/08/12 02:28:56;;;;;;;6.30;4.05;;;15.50;99.90;;;;;;5030599;28;20036;-77
2023/08/12 02:31:21;;;;;;;7.57;4.82;;;15.50;99.90;;;;;;5030867;28;20025;-78
2023/08/12 02:33:47;;;;;;;5.30;4.10;;;15.50;99.90;;;;;;5032783;28;20025;-77
2023/08/12 02:36:12;;;;;;;9.07;4.30;;;15.40;99.90;;;;;;5031374;28;20032;-77
2023/08/12 02:38:38;;;;;;;6.72;4.10;;;15.40;99.90;;;;;;5031149;28;20029;-78
2023/08/12 02:41:03;;;;;;;8.38;4.38;;;15.30;99.90;;;;;;5031630;28;20029;-78
2023/08/12 02:43:29;;;;;;;8.43;4.55;;;15.30;99.90;;;;;;5031060;28;20029;-78
2023/08/12 02:45:55;;;;;;;5.13;3.95;;;15.30;99.90;;;;;;5031569;28;20102;-78
2023/08/12 02:48:21;;;;;;;8.13;4.28;;;15.20;99.90;;;;;;5030144;28;20028;-77
2023/08/12 02:50:46;;;;;;;7.03;4.03;;;15.20;99.90;;;;;;5031863;28;20025;-77
2023/08/12 02:53:12;;;;;;;6.35;3.95;;;15.20;99.90;;;;;;5030869;28;20029;-77
2023/08/12 02:55:38;;;;;;;7.35;4.22;;;15.20;99.90;;;;;;5031587;28;20017;-78
2023/08/12 02:58:04;;;;;;;9.40;4.40;;;15.20;99.90;;;;;;5029427;28;20855;-77
2023/08/12 03:00:29;;;;;;;6.10;4.25;;;15.10;99.90;;;;;;5031461;28;20036;-78
2023/08/12 03:02:56;;;;;;;4.78;3.60;;;15.10;99.90;;;;;;5030807;28;20033;-77
2023/08/12 03:05:22;;;;;;;8.15;4.47;;;15.10;99.90;;;;;;5030507;28;20059;-77
2023/08/12 03:07:48;;;;;;;9.25;4.63;;;15.10;99.90;;;;;;5030058;28;20028;-78
2023/08/12 03:10:14;;;;;;;6.38;4.03;;;15.10;99.90;;;;;;5030789;28;20024;-77
2023/08/12 03:12:39;;;;;;;8.40;4.40;;;15.00;99.90;;;;;;5030984;28;20021;-77
2023/08/12 03:15:07;;;;;;;6.10;4.30;;;15.00;99.90;;;;;;5030911;28;20111;-78
2023/08/12 03:17:32;;;;;;;5.80;4.15;;;15.00;99.90;;;;;;5030005;28;20175;-77
2023/08/12 03:19:59;;;;;;;6.22;3.90;;;15.00;99.90;;;;;;5031115;28;20018;-78
2023/08/12 03:22:28;;;;;;;7.85;4.43;;;15.00;99.90;;;;;;5029058;28;20029;-78
2023/08/12 03:24:53;;;;;;;6.45;4.45;;;14.90;99.90;;;;;;5029714;28;20033;-77
2023/08/12 03:27:19;;;;;;;6.78;4.40;;;15.00;99.90;;;;;;5030289;28;20033;-77
2023/08/12 03:29:44;;;;;;;6.18;4.22;;;15.00;99.90;;;;;;5029670;28;20756;-77
2023/08/12 03:32:10;;;;;;;7.13;4.25;;;14.90;99.90;;;;;;5029516;28;20028;-77
2023/08/12 03:34:35;;;;;;;10.70;4.60;;;14.90;99.90;;;;;;5030216;28;20021;-78
2023/08/12 03:37:01;;;;;;;7.35;4.93;;;14.90;99.90;;;;;;5029984;28;20110;-78
2023/08/12 03:39:26;;;;;;;9.25;4.80;;;14.90;99.90;;;;;;5029657;28;20033;-77
2023/08/12 03:41:53;;;;;;;6.70;4.32;;;14.90;99.90;;;;;;5029611;28;20037;-77
2023/08/12 03:44:18;;;;;;;8.02;4.70;;;14.90;99.90;;;;;;5029004;28;20469;-77
2023/08/12 03:46:44;;;;;;;6.68;4.82;;;14.90;99.90;;;;;;5029416;28;20126;-77
2023/08/12 03:49:10;;;;;;;8.27;4.35;;;14.80;99.90;;;;;;5028777;28;20032;-77
2023/08/12 03:51:35;;;;;;;6.40;4.80;;;14.90;99.90;;;;;;5029924;28;20506;-77
2023/08/12 03:54:01;;;;;;;6.60;4.60;;;14.90;99.90;;;;;;5029201;28;20491;-78
2023/08/12 03:56:26;;;;;;;8.15;4.78;;;14.90;99.90;;;;;;5029103;28;20033;-78
2023/08/12 03:58:52;;;;;;;6.80;4.43;;;14.80;99.90;;;;;;5029614;28;20785;-78
2023/08/12 04:01:17;;;;;;;8.15;4.45;;;14.80;99.90;;;;;;5028182;28;20036;-78
2023/08/12 04:03:43;;;;;;;6.50;3.88;;;14.80;99.90;;;;;;5030053;28;20033;-78
2023/08/12 04:06:09;;;;;;;7.00;4.63;;;14.80;99.90;;;;;;5028989;28;21483;-77
2023/08/12 04:08:34;;;;;;;6.68;4.07;;;14.70;99.90;;;;;;5028268;28;20029;-77
2023/08/12 04:11:00;;;;;;;7.22;4.13;;;14.70;99.90;;;;;;5029158;28;20044;-78
2023/08/12 04:13:25;;;;;;;6.68;3.78;;;14.70;99.90;;;;;;5030182;28;20040;-78
2023/08/12 04:15:53;;;;;;;7.07;4.22;;;14.60;99.90;;;;;;5029472;28;20025;-78
2023/08/12 04:18:19;;;;;;;5.88;4.13;;;14.60;99.90;;;;;;5029345;28;20037;-77
2023/08/12 04:20:49;;;;;;;5.70;4.10;;;14.60;99.90;;;;;;5028071;28;20368;-78
2023/08/12 04:23:15;;;;;;;7.03;3.70;;;14.60;99.90;;;;;;5029893;28;20028;-78
2023/08/12 04:25:44;;;;;;;5.40;4.60;;;14.60;99.90;;;;;;5027987;28;20021;-78
2023/08/12 04:28:09;;;;;;;8.85;5.20;;;14.60;99.90;;;;;;5027499;28;20044;-78
2023/08/12 04:30:35;;;;;;;4.93;3.90;;;14.60;99.90;;;;;;5029796;28;20021;-77
2023/08/12 04:33:00;;;;;;;5.05;3.83;;;14.60;99.90;;;;;;5028624;28;21431;-77
2023/08/12 04:35:26;;;;;;;6.97;3.90;;;14.60;99.90;;;;;;5028397;28;20033;-78
2023/08/12 04:37:52;;;;;;;5.25;3.83;;;14.50;99.90;;;;;;5027492;28;20057;-78
2023/08/12 04:40:17;;;;;;;7.25;4.03;;;14.60;99.90;;;;;;5029413;28;20113;-78
2023/08/12 04:42:43;;;;;;;8.32;4.28;;;14.60;99.90;;;;;;5027166;28;20167;-78
2023/08/12 04:45:09;;;;;;;9.43;4.43;;;14.60;99.90;;;;;;5028441;28;20116;-86
2023/08/12 04:47:34;;;;;;;10.07;4.43;;;14.60;99.90;;;;;;5029438;28;20120;-80
2023/08/12 04:50:00;;;;;;;6.13;4.30;;;14.70;99.90;;;;;;5032362;28;20036;-80
2023/08/12 04:52:25;;;;;;;6.90;4.30;;;14.70;99.90;;;;;;5033017;28;20035;-78
2023/08/12 04:54:53;;;;;;;6.93;4.80;;;14.70;99.90;;;;;;5033781;28;20117;-80
2023/08/12 04:57:19;;;;;;;6.00;4.55;;;14.80;99.90;;;;;;5032431;28;20029;-73
2023/08/12 04:59:44;;;;;;;10.85;4.07;;;14.80;99.90;;;;;;5031619;28;20036;-73
2023/08/12 05:02:10;;;;;;;7.38;4.25;;;14.90;99.90;;;;;;5032213;28;20037;-73
2023/08/12 05:04:36;;;;;;;5.00;4.15;;;15.00;99.90;;;;;;5031583;28;20385;-73
2023/08/12 05:07:02;;;;;;;5.38;4.32;;;15.00;99.90;;;;;;5032086;28;20127;-73
2023/08/12 05:09:27;;;;;;;7.20;4.38;;;15.10;99.90;;;;;;5032753;28;20446;-73
2023/08/12 05:11:53;;;;;;;12.60;4.05;;;15.20;99.90;;;;;;5032246;28;20069;-73
2023/08/12 05:14:19;;;;;;;7.20;4.43;;;15.20;99.90;;;;;;5033014;28;20117;-73
2023/08/12 05:16:44;;;;;;;5.35;3.92;;;15.30;99.90;;;;;;5032078;28;20030;-73
2023/08/12 05:19:10;;;;;;;7.15;4.15;;;15.40;99.90;;;;;;5031884;28;20090;-73
2023/08/12 05:21:35;;;;;;;7.28;4.43;;;15.40;99.90;;;;;;5031231;28;20045;-74
2023/08/12 05:24:01;;;;;;;4.88;3.97;;;15.40;99.90;;;;;;5032483;28;20037;-73
2023/08/12 05:26:26;;;;;;;5.78;4.68;;;15.50;99.90;;;;;;5031772;28;20041;-73
2023/08/12 05:28:52;;;;;;;6.55;4.38;;;15.50;99.90;;;;;;5031139;28;20116;-73
2023/08/12 05:31:17;;;;;;;8.27;4.90;;;15.60;99.90;;;;;;5030904;28;20044;-74
2023/08/12 05:33:43;;;;;;;6.15;4.13;;;15.70;99.90;;;;;;5032097;28;20921;-74
2023/08/12 05:36:09;;;;;;;6.40;4.20;;;15.70;99.90;;;;;;5030147;28;20017;-73
2023/08/12 05:38:34;;;;;;;4.93;4.00;;;15.80;99.90;;;;;;5030408;28;20036;-74
2023/08/12 05:41:00;;;;;;;8.25;4.20;;;15.90;99.90;;;;;;5030431;28;20040;-74
2023/08/12 05:43:25;;;;;;;6.72;4.28;;;16.00;99.90;;;;;;5030331;28;20120;-74
2023/08/12 05:45:51;;;;;;;5.28;4.32;;;16.10;99.90;;;;;;5031814;28;20052;-78
2023/08/12 05:48:16;;;;;;;7.63;4.70;;;16.10;99.90;;;;;;5030468;28;20021;-77
2023/08/12 05:50:43;;;;;;;4.90;4.20;;;16.30;99.90;;;;;;5030959;28;20022;-78
2023/08/12 05:53:08;;;;;;;7.03;4.30;;;16.30;99.90;;;;;;5028694;28;20099;-78
2023/08/12 05:55:37;;;;;;;5.63;3.80;;;16.50;99.90;;;;;;5030350;28;20485;-78
2023/08/12 05:58:02;;;;;;;5.30;3.95;;;16.60;99.90;;;;;;5029714;28;20041;-78
2023/08/12 06:00:28;;;;;;;5.50;3.90;;;16.70;99.90;;;;;;5030971;28;20029;-78
2023/08/12 06:02:54;;;;;;;7.90;3.80;;;16.90;99.90;;;;;;5030391;28;20512;-78
2023/08/12 06:05:20;;;;;;;8.48;4.25;;;17.00;99.90;;;;;;5029644;28;20017;-78
2023/08/12 06:07:45;;;;;;;5.28;3.72;;;17.20;99.90;;;;;;5028576;28;20025;-78
2023/08/12 06:10:10;;;;;;;5.13;3.28;;;17.30;99.90;;;;;;5029795;28;20033;-78
2023/08/12 06:12:36;;;;;;;5.40;3.47;;;17.50;99.90;;;;;;5030251;28;20029;-78
2023/08/12 06:15:02;;;;;;;4.57;3.30;;;17.70;99.90;;;;;;5029994;28;20122;-78
2023/08/12 06:17:27;;;;;;;4.82;3.65;;;17.90;99.90;;;;;;5027738;28;20029;-78
2023/08/12 06:19:53;;;;;;;5.93;3.50;;;18.20;99.90;;;;;;5029905;28;20033;-78
2023/08/12 06:22:18;;;;;;;6.05;3.70;;;18.40;99.90;;;;;;5029514;28;20032;-78
2023/08/12 06:24:44;;;;;;;6.80;3.50;;;18.60;99.90;;;;;;5029535;28;20025;-78
2023/08/12 06:27:10;;;;;;;8.73;3.83;;;18.80;99.90;;;;;;5028863;28;20549;-73
2023/08/12 06:29:35;;;;;;;4.10;3.50;;;18.90;99.90;;;;;;5027657;28;20381;-73
2023/08/12 06:32:01;;;;;;;4.85;3.60;;;19.00;99.90;;;;;;5029088;28;20637;-73
2023/08/12 06:34:26;;;;;;;5.40;3.33;;;19.00;99.90;;;;;;5029565;28;20112;-73
2023/08/12 06:36:52;;;;;;;5.28;3.65;;;19.00;99.90;;;;;;5027321;28;20028;-73
2023/08/12 06:39:17;;;;;;;6.93;3.50;;;19.00;99.90;;;;;;5027309;28;21385;-73
2023/08/12 06:41:43;;;;;;;9.30;4.45;;;19.00;99.90;;;;;;5030812;28;20029;-73
2023/08/12 06:44:08;;;;;;;10.63;3.90;;;19.00;99.90;;;;;;5030621;28;20040;-77
2023/08/12 06:46:34;;;;;;;5.28;3.88;;;19.10;99.90;;;;;;5030629;28;20023;-73
2023/08/12 06:48:59;;;;;;;6.75;3.50;;;19.30;99.90;;;;;;5029755;28;20029;-74
2023/08/12 06:51:25;;;;;;;8.13;3.38;;;19.40;99.90;;;;;;5030099;28;20028;-75
2023/08/12 06:53:50;;;;;;;5.38;3.35;;;19.60;99.90;;;;;;5030393;28;20531;-75
2023/08/12 06:56:16;;;;;;;3.75;3.20;;;19.80;99.90;;;;;;5029973;28;20072;-75
2023/08/12 06:58:41;;;;;;;4.75;3.53;;;20.00;99.90;;;;;;5029824;28;20033;-76
2023/08/12 07:01:07;;;;;;;5.22;2.95;;;20.20;99.90;;;;;;5029212;28;20025;-75
2023/08/12 07:03:33;;;;;;;6.95;3.42;;;20.30;99.90;;;;;;5030018;28;20039;-75
2023/08/12 07:05:58;;;;;;;5.65;3.40;;;20.40;99.90;;;;;;5028972;28;20033;-75
2023/08/12 07:08:24;;;;;;;5.80;3.17;;;20.60;99.90;;;;;;5028268;28;20025;-75
2023/08/12 07:10:50;;;;;;;7.70;3.78;;;20.70;99.90;;;;;;5028182;28;20017;-74
2023/08/12 07:13:15;;;;;;;6.38;3.60;;;20.90;99.90;;;;;;5029696;28;20048;-75
2023/08/12 07:15:41;;;;;;;4.07;3.63;;;21.00;99.90;;;;;;5029664;28;20018;-75
2023/08/12 07:18:06;;;;;;;6.70;3.58;;;21.10;99.90;;;;;;5025786;28;20112;-75
2023/08/12 07:20:32;;;;;;;5.10;3.03;;;21.20;99.90;;;;;;5029604;28;20052;-75
2023/08/12 07:22:58;;;;;;;5.47;2.95;;;21.30;99.90;;;;;;5030058;28;20025;-76
2023/08/12 07:25:23;;;;;;;5.03;3.05;;;21.40;99.90;;;;;;5028786;28;20048;-75
2023/08/12 07:27:49;;;;;;;5.10;3.00;;;21.60;99.90;;;;;;5027471;28;20036;-76
2023/08/12 07:30:15;;;;;;;4.88;3.17;;;21.70;99.90;;;;;;5029165;28;20037;-75
2023/08/12 07:32:40;;;;;;;3.55;2.85;;;21.80;99.90;;;;;;5028454;28;20037;-75
2023/08/12 07:35:06;;;;;;;7.70;3.83;;;22.00;99.90;;;;;;5029554;28;20068;-75
2023/08/12 07:37:32;;;;;;;3.65;2.83;;;22.20;99.90;;;;;;5029553;28;20047;-81
2023/08/12 07:39:58;;;;;;;6.05;3.50;;;22.40;99.90;;;;;;5028657;28;20025;-75
2023/08/12 07:42:23;;;;;;;4.30;3.03;;;22.70;99.90;;;;;;5026822;28;20161;-75
2023/08/12 07:44:49;;;;;;;4.85;2.92;;;22.90;99.90;;;;;;5024938;28;20025;-76
2023/08/12 07:47:15;;;;;;;7.15;3.00;;;23.00;99.90;;;;;;5026352;28;20028;-75
2023/08/12 07:49:41;;;;;;;4.25;3.00;;;23.10;99.90;;;;;;5027708;28;20500;-76
2023/08/12 07:52:06;;;;;;;5.55;3.40;;;23.20;99.90;;;;;;5028030;28;20039;-79
2023/08/12 07:54:32;;;;;;;6.88;3.17;;;23.40;99.90;;;;;;5027418;28;20094;-74
2023/08/12 07:56:57;;;;;;;5.38;3.20;;;23.40;99.90;;;;;;5026226;28;20168;-76
2023/08/12 07:59:23;;;;;;;4.55;3.20;;;23.60;99.90;;;;;;5026948;28;20033;-74
2023/08/12 08:01:48;;;;;;;4.43;3.08;;;23.60;99.90;;;;;;5027216;28;20033;-74
2023/08/12 08:04:14;;;;;;;3.63;3.22;;;23.80;99.90;;;;;;5028055;28;20144;-75
2023/08/12 08:06:39;;;;;;;5.25;3.35;;;23.90;99.90;;;;;;5027539;28;20364;-75
2023/08/12 08:09:06;;;;;;;4.05;3.28;;;24.10;99.90;;;;;;5028675;28;20043;-79
2023/08/12 08:11:32;;;;;;;5.95;3.30;;;24.20;99.90;;;;;;5027742;28;20026;-75
2023/08/12 08:13:58;;;;;;;6.28;3.20;;;24.30;99.90;;;;;;5028313;28;20029;-77
2023/08/12 08:16:24;;;;;;;4.63;3.20;;;24.40;99.90;;;;;;5026259;28;20025;-76
2023/08/12 08:18:50;;;;;;;3.67;2.75;;;24.40;99.90;;;;;;5026986;28;20028;-77
2023/08/12 08:21:16;;;;;;;4.03;3.17;;;24.50;99.90;;;;;;5027125;28;20021;-76
2023/08/12 08:23:41;;;;;;;4.72;2.95;;;24.60;99.90;;;;;;5020794;28;20100;-75
2023/08/12 08:26:08;;;;;;;5.63;3.00;;;24.70;99.90;;;;;;5023368;28;20064;-76
2023/08/12 08:28:34;;;;;;;4.18;2.97;;;24.80;99.90;;;;;;5026763;28;20042;-79
2023/08/12 08:31:00;;;;;;;4.03;2.95;;;24.90;99.90;;;;;;5027007;28;20040;-75
2023/08/12 08:33:26;;;;;;;5.18;2.88;;;24.90;99.90;;;;;;5025190;28;20033;-76
2023/08/12 08:35:53;;;;;;;5.72;3.30;;;24.90;99.90;;;;;;5023229;28;20466;-75
2023/08/12 08:38:18;;;;;;;4.82;2.97;;;24.90;99.90;;;;;;5025961;28;20033;-75
2023/08/12 08:40:44;;;;;;;6.30;3.25;;;24.90;99.90;;;;;;5031439;28;20032;-77
2023/08/12 08:43:09;;;;;;;3.33;3.03;;;24.90;99.90;;;;;;5032315;28;20388;-76
2023/08/12 08:45:37;;;;;;;7.03;2.90;;;24.90;99.90;;;;;;5032318;28;20392;-76
2023/08/12 08:48:03;;;;;;;14.68;3.50;;;24.90;99.90;;;;;;5030483;28;20033;-75
2023/08/12 08:50:32;;;;;;;4.97;3.30;;;25.00;99.90;;;;;;5030799;28;20044;-75
2023/08/12 08:52:59;;;;;;;5.40;3.42;;;25.20;99.90;;;;;;5032210;28;21341;-76
2023/08/12 08:55:25;;;;;;;27.10;4.30;;;25.40;99.90;;;;;;5031738;28;20021;-75
2023/08/12 08:57:52;;;;;;;18.38;4.50;;;25.50;99.90;;;;;;5032227;28;20502;-74
2023/08/12 09:00:18;;;;;;;12.02;3.88;;;25.60;99.90;;;;;;5031934;28;20082;-75
2023/08/12 09:02:47;;;;;;;9.80;3.20;;;25.70;99.90;;;;;;5031954;28;20025;-75
2023/08/12 09:05:13;;;;;;;4.22;3.08;;;25.80;99.90;;;;;;5030887;28;20034;-76
2023/08/12 09:07:41;;;;;;;5.30;3.30;;;25.80;99.90;;;;;;5030687;28;20036;-77
2023/08/12 09:10:08;;;;;;;4.38;3.35;;;25.90;99.90;;;;;;5030923;28;20029;-75
2023/08/12 09:12:34;;;;;;;6.38;3.53;;;25.90;99.90;;;;;;5031908;28;20044;-76
2023/08/12 09:15:00;;;;;;;8.50;3.60;;;25.90;99.90;;;;;;5031326;28;20785;-75
2023/08/12 09:17:26;;;;;;;6.07;3.65;;;26.00;99.90;;;;;;5029609;28;20032;-80
2023/08/12 09:19:51;;;;;;;5.10;2.78;;;26.10;99.90;;;;;;5032715;28;20045;-80
2023/08/12 09:22:18;;;;;;;9.90;3.60;;;26.30;99.90;;;;;;5031282;28;20030;-85
2023/08/12 09:24:43;;;;;;;8.40;3.28;;;26.50;99.90;;;;;;5031106;28;20039;-75
2023/08/12 09:27:09;;;;;;;3.63;3.17;;;26.70;99.90;;;;;;5031623;28;20516;-82
2023/08/12 09:29:35;;;;;;;7.57;3.22;;;26.90;99.90;;;;;;5031887;28;20053;-81
2023/08/12 09:32:18;;;;;;;6.32;3.40;;;27.10;99.90;;;;;;5031511;28;20108;-75
2023/08/12 09:34:48;;;;;;;6.20;3.15;;;27.10;99.90;;;;;;5031162;28;20044;-74
2023/08/12 09:37:14;;;;;;;5.38;3.38;;;27.10;99.90;;;;;;5031388;28;20121;-75
2023/08/12 09:39:41;;;;;;;4.05;3.00;;;27.00;99.90;;;;;;5031734;28;20358;-76
2023/08/12 09:42:06;;;;;;;7.22;3.22;;;26.90;99.90;;;;;;5031177;28;20649;-74
2023/08/12 09:44:35;;;;;;;4.55;3.30;;;26.90;99.90;;;;;;5029856;28;20067;-74
2023/08/12 09:47:01;;;;;;;5.03;3.25;;;26.80;99.90;;;;;;5031633;28;20029;-76
2023/08/12 09:49:27;;;;;;;3.97;3.35;;;26.70;99.90;;;;;;5029338;28;20044;-75
2023/08/12 09:51:53;;;;;;;5.57;3.55;;;26.70;99.90;;;;;;5031125;28;20035;-75
2023/08/12 09:54:19;;;;;;;4.82;3.25;;;26.80;99.90;;;;;;5030283;28;20536;-76
2023/08/12 09:56:49;;;;;;;4.45;3.70;;;26.80;99.90;;;;;;5029946;28;20033;-76
2023/08/12 09:59:22;;;;;;;5.03;3.78;;;26.90;99.90;;;;;;5030603;28;20029;-76
2023/08/12 10:01:48;;;;;;;4.75;3.40;;;27.00;99.90;;;;;;5030713;28;20033;-77
2023/08/12 10:04:17;;;;;;;5.18;3.20;;;27.20;99.90;;;;;;5031161;28;20086;-76
2023/08/12 10:06:43;;;;;;;4.18;3.15;;;27.30;99.90;;;;;;5029269;28;20091;-82
2023/08/12 10:09:11;;;;;;;4.43;3.10;;;27.50;99.90;;;;;;5030549;28;20029;-73
2023/08/12 10:11:37;;;;;;;5.97;3.33;;;27.90;99.90;;;;;;5030510;28;20039;-79
2023/08/12 10:14:04;;;;;;;5.00;2.88;;;28.30;99.90;;;;;;5031640;28;20101;-74
2023/08/12 10:16:30;;;;;;;6.45;3.25;;;28.70;99.90;;;;;;5030439;28;20033;-76
2023/08/12 10:18:57;;;;;;;4.10;2.58;;;29.00;99.90;;;;;;5029684;28;20086;-83
2023/08/12 10:21:24;;;;;;;6.35;3.28;;;29.20;99.90;;;;;;5031057;28;20108;-74
2023/08/12 10:23:50;;;;;;;5.05;2.60;;;29.40;99.90;;;;;;5029986;28;20033;-78
2023/08/12 10:26:17;;;;;;;3.55;2.60;;;29.80;99.90;;;;;;5029913;28;20040;-74
2023/08/12 10:28:43;;;;;;;4.22;2.72;;;29.70;99.90;;;;;;5028225;28;20704;-75
2023/08/12 10:31:11;;;;;;;3.63;2.58;;;29.70;99.90;;;;;;5028696;28;20044;-77
2023/08/12 10:33:38;;;;;;;12.50;5.05;;;29.60;99.90;;;;;;5028023;28;21310;-74
2023/08/12 10:36:05;;;;;;;5.60;3.38;;;29.70;99.90;;;;;;5027757;28;20093;-74
2023/08/12 10:38:32;;;;;;;4.40;2.83;;;29.80;99.90;;;;;;5027493;28;20090;-75
2023/08/12 10:41:23;;;;;;;3.13;2.20;;;30.00;99.90;;;;;;5032197;28;20033;-81
2023/08/12 10:44:04;;;;;;;4.32;2.97;;;30.30;99.90;;;;;;5033599;28;20029;-81
2023/08/12 10:46:34;;;;;;;7.43;2.88;;;30.50;99.90;;;;;;5032178;28;20041;-81
2023/08/12 10:49:04;;;;;;;3.80;2.75;;;30.70;99.90;;;;;;5034585;28;20108;-81
2023/08/12 10:51:41;;;;;;;3.55;2.53;;;30.80;99.90;;;;;;5035477;28;20071;-82
2023/08/12 10:54:16;;;;;;;3.78;2.58;;;31.00;99.90;;;;;;5035121;28;20167;-81
2023/08/12 10:57:04;;;;;;;4.43;2.75;;;31.00;99.90;;;;;;5035188;28;20125;-82
2023/08/12 10:59:44;;;;;;;5.05;2.80;;;31.20;99.90;;;;;;5035786;28;20055;-81
2023/08/12 11:02:32;;;;;;;4.55;2.92;;;31.20;99.90;;;;;;5035222;28;20488;-82
2023/08/12 11:05:02;;;;;;;3.35;2.35;;;31.20;99.90;;;;;;5036268;28;20041;-81
2023/08/12 11:07:50;;;;;;;5.22;2.60;;;31.40;99.90;;;;;;5033855;28;20914;-75
2023/08/12 11:10:18;;;;;;;3.38;2.42;;;31.50;99.90;;;;;;5033682;28;20033;-81
2023/08/12 11:12:56;;;;;;;7.53;2.80;;;31.80;99.90;;;;;;5035215;28;20040;-81
2023/08/12 11:15:37;;;;;;;4.90;2.75;;;32.00;99.90;;;;;;5033243;28;20057;-81
2023/08/12 11:18:07;;;;;;;4.07;2.60;;;31.90;99.90;;;;;;5033647;28;20051;-80
2023/08/12 11:20:34;;;;;;;3.80;2.63;;;31.80;99.90;;;;;;5034532;28;20021;-81
2023/08/12 11:23:00;;;;;;;6.65;2.80;;;32.00;99.90;;;;;;5034103;28;20024;-81
2023/08/12 11:25:27;;;;;;;5.18;2.35;;;32.20;99.90;;;;;;5034906;28;20029;-81
2023/08/12 11:27:53;;;;;;;4.45;2.55;;;32.30;99.90;;;;;;5034070;28;21488;-80
2023/08/12 11:30:21;;;;;;;7.30;2.58;;;32.30;99.90;;;;;;5033539;28;20033;-81
2023/08/12 11:32:55;;;;;;;3.30;2.20;;;32.20;99.90;;;;;;5034936;28;20031;-81
2023/08/12 11:35:22;;;;;;;5.65;2.55;;;32.10;99.90;;;;;;5033487;28;20036;-81
2023/08/12 11:37:52;;;;;;;4.18;2.70;;;32.10;99.90;;;;;;5034680;28;20052;-81
2023/08/12 11:40:19;;;;;;;2.88;2.40;;;32.30;99.90;;;;;;5035074;28;20053;-82
2023/08/12 11:42:47;;;;;;;3.95;2.60;;;32.60;99.90;;;;;;5034789;28;20033;-81
2023/08/12 11:45:15;;;;;;;6.82;2.70;;;32.60;99.90;;;;;;5033300;28;20029;-81
2023/08/12 11:47:41;;;;;;;7.25;2.53;;;32.80;99.90;;;;;;5033120;28;20059;-81
2023/08/12 11:50:09;;;;;;;6.60;2.70;;;32.80;99.90;;;;;;5032066;28;20021;-81
2023/08/12 11:52:35;;;;;;;3.42;2.58;;;32.80;99.90;;;;;;5034865;28;20767;-81
2023/08/12 11:55:02;;;;;;;6.13;2.42;;;32.90;99.90;;;;;;5034044;28;20373;-81
2023/08/12 11:57:28;;;;;;;4.60;2.22;;;33.10;99.90;;;;;;5034084;28;20040;-81
2023/08/12 11:59:59;;;;;;;4.25;2.83;;;32.90;99.90;;;;;;5034064;28;20484;-81
2023/08/12 12:02:25;;;;;;;4.13;2.47;;;33.00;99.90;;;;;;5033981;28;20515;-81
2023/08/12 12:04:52;;;;;;;8.10;2.67;;;33.00;99.90;;;;;;5033715;28;20036;-81
2023/08/12 12:07:25;;;;;;;2.95;2.35;;;32.60;99.90;;;;;;5033635;28;20025;-81
2023/08/12 12:09:52;;;;;;;3.33;2.40;;;32.50;99.90;;;;;;5033834;28;20712;-81
2023/08/12 12:12:21;;;;;;;4.57;2.22;;;32.40;99.90;;;;;;5032165;28;20988;-81
2023/08/12 12:14:47;;;;;;;4.75;2.00;;;32.50;99.90;;;;;;5033175;28;20093;-81
2023/08/12 12:17:15;;;;;;;3.25;1.80;;;32.50;99.90;;;;;;5032222;28;20037;-81
2023/08/12 12:19:41;;;;;;;3.72;2.03;;;32.20;99.90;;;;;;5032038;28;20032;-81
2023/08/12 12:22:07;;;;;;;6.20;2.63;;;32.10;99.90;;;;;;5031291;28;20807;-81
2023/08/12 12:24:46;;;;;;;4.30;2.17;;;31.90;99.90;;;;;;5032136;28;20064;-81
2023/08/12 12:27:13;;;;;;;6.18;2.45;;;31.70;99.90;;;;;;5032517;28;20039;-81
2023/08/12 12:29:39;;;;;;;2.85;2.20;;;31.50;99.90;;;;;;5032100;28;20029;-81
2023/08/12 12:32:05;;;;;;;3.45;2.38;;;31.30;99.90;;;;;;5032718;28;20033;-81
2023/08/12 12:34:30;;;;;;;5.80;2.33;;;31.30;99.90;;;;;;5031148;28;20052;-81
2023/08/12 12:36:56;;;;;;;5.07;2.53;;;31.40;99.90;;;;;;5031744;28;20068;-81
2023/08/12 12:39:23;;;;;;;2.88;2.42;;;31.20;99.90;;;;;;5031316;28;20107;-81
2023/08/12 12:41:48;;;;;;;4.00;2.20;;;31.00;99.90;;;;;;5032578;28;20018;-81
2023/08/12 12:44:14;;;;;;;3.85;2.40;;;30.90;99.90;;;;;;5030791;28;20729;-80